Portada
METAR-TAF:

METAR-TAF

Aeroports :

Aeroport Internacional d'Al-Ain

Al-Ain, Emirats Àrabs Units

latitud: 24-16N, longitud: 055-36E, altitud: 265 m

Observació

L'informe es va fer fa 14 minuts, a les 15:00 UTC
Vent 6 kt del Nord-Oest
Temperatura 26°C
Humitat 28%
Pressió 1017 hPa
Visibilitat: 9000 m

METAR: OMAL 181500Z 32006KT 9000 NSC 26/06 Q1017 NOSIG

Hora: 19:14 (15:14 UTC)

Pronòstic

L'informe es va fer fa 4 hores i 14 minuts, a les 11:00 UTC
Pronòstic vàlid del 18 a les 12 UTC al 19 a les 18 UTC
Vent 8 kt del Nord/Nord-Oest
Visibilitat: 8000 m
Evolucionant progressivament
l' 18 a les 20 UTC al 18 a les 22 UTC
Vent 6 kt del Est
Evolucionant progressivament
l' 19 a les 03 UTC al 19 a les 05 UTC
Vent 10 kt del Sud/Sud-Est
Evolucionant progressivament
l' 19 a les 11 UTC al 19 a les 13 UTC
Vent 6 kt del Nord/Nord-Oest

TAF: OMAL 181100Z 1812/1918 34008KT 8000 NSC BECMG 1820/1822 08006KT BECMG 1903/1905 16010KT BECMG 1911/1913 34006KT

Observacions i pronòstics meteorològics de més de 4000 aeroports (METAR i TAF).

Les estacions disponibles són els punts grocs i vermells al mapa.

Posi el ratolí al punt desitjat per veure el nom de l'estació.

Feu clic per veure les observacions i els pronòstics meteorològics.

Per canviar el mapa: feu clic els botons verds amb una creu de color negre per apropar; al botó verd amb un guió per allunyar la imatge; o en les fletxes verdes per a mapes adjacents.


METAR-TAF: